Time;durP1;ratioP1;P1;durP2;ratioP2;P2;SDS_P1;SDS_P2;PMS_P1;PMS_P2;Temp;Humidity;BMP_temperature;BMP_pressure;BME280_temperature;BME280_humidity;BME280_pressure;Samples;Min_cycle;Max_cycle;Signal;HPM_P1;HPM_P2
2023/08/25 00:02:20;;;;;;;0.00;0.00;;;;;;;16.83;100.00;96172.72;4844239;29;20124;-80
2023/08/25 00:05:06;;;;;;;0.10;0.10;;;;;;;16.79;100.00;96166.28;4843032;29;20052;-80
2023/08/25 00:07:52;;;;;;;0.00;0.00;;;;;;;16.78;100.00;96174.69;4844908;29;20046;-80
2023/08/25 00:10:38;;;;;;;0.00;0.00;;;;;;;16.67;100.00;96174.03;4843473;29;20073;-80
2023/08/25 00:13:24;;;;;;;0.10;0.10;;;;;;;16.64;100.00;96163.81;4839749;29;21691;-80
2023/08/25 00:16:10;;;;;;;0.05;0.05;;;;;;;16.54;100.00;96166.66;4843688;29;20554;-80
2023/08/25 00:18:55;;;;;;;0.00;0.00;;;;;;;16.58;100.00;96167.69;4843845;29;20061;-80
2023/08/25 00:21:41;;;;;;;0.00;0.00;;;;;;;16.54;100.00;96180.97;4844132;29;20475;-80
2023/08/25 00:24:27;;;;;;;0.10;0.10;;;;;;;16.53;100.00;96171.28;4841605;29;20053;-80
2023/08/25 00:27:13;;;;;;;0.10;0.10;;;;;;;16.43;100.00;96174.94;4844358;29;20060;-80
2023/08/25 00:29:59;;;;;;;0.10;0.10;;;;;;;16.46;100.00;96167.34;4843330;29;20038;-80
2023/08/25 00:32:45;;;;;;;0.10;0.10;;;;;;;16.40;100.00;96162.00;4844737;29;20074;-80
2023/08/25 00:35:31;;;;;;;0.10;0.10;;;;;;;16.44;100.00;96160.34;4841602;29;20045;-80
2023/08/25 00:38:17;;;;;;;0.10;0.10;;;;;;;16.46;100.00;96162.72;4829825;29;20077;-80
2023/08/25 00:41:03;;;;;;;0.00;0.00;;;;;;;16.50;100.00;96147.56;4841210;29;20081;-80
2023/08/25 00:43:49;;;;;;;0.10;0.10;;;;;;;16.49;100.00;96150.53;4843208;29;20053;-80
2023/08/25 00:46:35;;;;;;;0.10;0.10;;;;;;;16.49;100.00;96139.72;4829003;29;20050;-80
2023/08/25 00:49:22;;;;;;;0.10;0.10;;;;;;;16.49;100.00;96143.22;4842032;29;20053;-80
2023/08/25 00:52:10;;;;;;;0.00;0.00;;;;;;;16.36;100.00;96131.28;4828822;29;20042;-80
2023/08/25 00:54:57;;;;;;;0.00;0.00;;;;;;;16.40;100.00;96129.59;4842537;29;20049;-80
2023/08/25 00:57:43;;;;;;;0.00;0.00;;;;;;;16.35;100.00;96140.50;4842246;29;20045;-80
2023/08/25 01:00:29;;;;;;;0.08;0.08;;;;;;;16.30;100.00;96135.16;4842174;29;20055;-80
2023/08/25 01:03:14;;;;;;;0.00;0.00;;;;;;;16.24;100.00;96124.72;4842107;29;20049;-80
2023/08/25 01:06:00;;;;;;;0.10;0.10;;;;;;;16.11;100.00;96131.66;4843511;29;20424;-80
2023/08/25 01:08:47;;;;;;;0.10;0.10;;;;;;;16.07;100.00;96123.34;4841548;29;20042;-80
2023/08/25 01:12:01;;;;;;;0.00;0.00;;;;;;;15.97;100.00;96118.09;4841027;29;20318;-80
2023/08/25 01:15:21;;;;;;;0.10;0.10;;;;;;;16.02;100.00;96118.00;4839961;29;20045;-80
2023/08/25 01:18:23;;;;;;;0.10;0.10;;;;;;;15.94;100.00;96101.66;4842180;29;20500;-80
2023/08/25 01:21:11;;;;;;;0.03;0.03;;;;;;;15.97;100.00;96104.59;4839418;29;20291;-79
2023/08/25 01:24:00;;;;;;;0.10;0.10;;;;;;;15.97;100.00;96103.78;4840235;29;20511;-79
2023/08/25 01:26:47;;;;;;;0.05;0.05;;;;;;;15.88;100.00;96085.56;4841332;29;20061;-79
2023/08/25 01:29:36;;;;;;;0.10;0.10;;;;;;;15.96;100.00;96094.91;4841775;29;20096;-79
2023/08/25 01:32:22;;;;;;;0.10;0.10;;;;;;;16.00;100.00;96095.91;4839909;29;20072;-79
2023/08/25 01:35:09;;;;;;;0.10;0.10;;;;;;;15.97;100.00;96098.41;4842923;29;20530;-79
2023/08/25 01:38:36;;;;;;;0.00;0.00;;;;;;;15.99;100.00;96086.19;4842949;29;20041;-79
2023/08/25 01:41:34;;;;;;;0.00;0.00;;;;;;;15.88;100.00;96088.25;4840265;29;20124;-79
2023/08/25 01:44:27;;;;;;;0.00;0.00;;;;;;;15.87;100.00;96092.06;4842281;29;20077;-79
2023/08/25 01:47:16;;;;;;;0.10;0.10;;;;;;;15.88;100.00;96087.44;4841921;29;20090;-79
2023/08/25 01:50:03;;;;;;;0.10;0.10;;;;;;;15.73;100.00;96080.38;4840564;29;20132;-79
2023/08/25 01:52:49;;;;;;;0.00;0.00;;;;;;;15.69;100.00;96084.72;4842701;29;20037;-80
2023/08/25 01:55:35;;;;;;;0.10;0.10;;;;;;;15.70;100.00;96090.91;4841378;29;20136;-80
2023/08/25 01:58:21;;;;;;;0.10;0.10;;;;;;;15.73;100.00;96093.84;4827608;29;20052;-79
2023/08/25 02:01:07;;;;;;;0.00;0.00;;;;;;;15.72;100.00;96094.13;4828410;29;20056;-80
2023/08/25 02:03:52;;;;;;;0.10;0.10;;;;;;;15.74;100.00;96091.97;4842701;29;20056;-80
2023/08/25 02:06:38;;;;;;;0.03;0.03;;;;;;;15.74;100.00;96087.34;4841637;29;20096;-79
2023/08/25 02:09:25;;;;;;;0.10;0.10;;;;;;;15.73;100.00;96093.84;4841557;29;20049;-80
2023/08/25 02:12:11;;;;;;;0.03;0.03;;;;;;;15.67;100.00;96086.09;4826954;29;20053;-79
2023/08/25 02:14:56;;;;;;;0.10;0.10;;;;;;;15.73;100.00;96087.66;4827166;29;20053;-79
2023/08/25 02:17:42;;;;;;;0.05;0.05;;;;;;;15.72;100.00;96076.06;4841041;29;20160;-79
2023/08/25 02:20:29;;;;;;;0.10;0.10;;;;;;;15.67;100.00;96076.13;4841286;29;20045;-79
2023/08/25 02:23:15;;;;;;;0.10;0.10;;;;;;;15.50;100.00;96063.09;4826468;29;20041;-78
2023/08/25 02:26:01;;;;;;;0.10;0.10;;;;;;;15.60;100.00;96064.84;4839858;29;20041;-79
2023/08/25 02:28:46;;;;;;;0.00;0.00;;;;;;;15.68;100.00;96061.53;4841487;29;20598;-78
2023/08/25 02:31:35;;;;;;;0.00;0.00;;;;;;;15.73;100.00;96048.00;4840348;29;21036;-79
2023/08/25 02:34:22;;;;;;;0.00;0.00;;;;;;;15.77;100.00;96048.22;4842746;29;20045;-79
2023/08/25 02:37:08;;;;;;;0.00;0.00;;;;;;;15.76;100.00;96046.59;4841583;29;20120;-79
2023/08/25 02:39:53;;;;;;;0.05;0.05;;;;;;;15.74;100.00;96048.78;4839820;29;20053;-79
2023/08/25 02:42:39;;;;;;;0.00;0.00;;;;;;;15.77;100.00;96046.31;4841139;29;20583;-79
2023/08/25 02:45:26;;;;;;;0.00;0.00;;;;;;;15.68;100.00;96039.16;4839411;29;20041;-79
2023/08/25 02:48:12;;;;;;;0.10;0.10;;;;;;;15.54;100.00;96028.25;4839053;29;20049;-79
2023/08/25 02:50:58;;;;;;;0.10;0.10;;;;;;;15.52;100.00;96035.84;4841346;29;20084;-79
2023/08/25 02:53:44;;;;;;;0.00;0.00;;;;;;;15.57;100.00;96031.19;4839296;29;20045;-80
2023/08/25 02:56:30;;;;;;;0.10;0.10;;;;;;;15.62;100.00;96024.13;4855844;29;20670;-80
2023/08/25 02:59:16;;;;;;;0.03;0.03;;;;;;;15.67;100.00;96027.56;4857491;29;20049;-80
2023/08/25 03:02:01;;;;;;;0.00;0.00;;;;;;;15.72;100.00;96024.81;4860019;29;20490;-80
2023/08/25 03:04:48;;;;;;;0.10;0.10;;;;;;;15.77;100.00;96016.63;4859383;28;20052;-80
2023/08/25 03:07:34;;;;;;;0.10;0.10;;;;;;;15.75;100.00;96020.72;4856190;29;20144;-80
2023/08/25 03:10:20;;;;;;;0.00;0.00;;;;;;;15.74;100.00;96017.22;4844379;29;20083;-79
2023/08/25 03:13:06;;;;;;;0.10;0.10;;;;;;;15.73;100.00;96014.84;4857586;29;20049;-79
2023/08/25 03:15:54;;;;;;;0.10;0.10;;;;;;;15.71;100.00;96019.69;4844540;29;20120;-80
2023/08/25 03:18:40;;;;;;;0.00;0.00;;;;;;;15.71;100.00;96035.88;4860817;28;20495;-80
2023/08/25 03:21:26;;;;;;;0.08;0.08;;;;;;;15.63;100.00;96026.53;4858543;29;20059;-80
2023/08/25 03:24:12;;;;;;;0.10;0.10;;;;;;;15.59;100.00;96022.81;4857426;29;20041;-80
2023/08/25 03:26:58;;;;;;;0.05;0.05;;;;;;;15.61;100.00;96015.25;4859060;29;20045;-80
2023/08/25 03:29:45;;;;;;;0.00;0.00;;;;;;;15.49;100.00;96009.47;4859063;28;20851;-80
2023/08/25 03:32:31;;;;;;;0.10;0.10;;;;;;;15.50;100.00;96016.47;4849769;29;20086;-80
2023/08/25 03:35:17;;;;;;;0.00;0.00;;;;;;;15.35;100.00;96009.38;4859164;28;20145;-80
2023/08/25 03:38:05;;;;;;;0.10;0.10;;;;;;;15.27;100.00;96018.91;4846584;29;20053;-80
2023/08/25 03:40:57;;;;;;;0.10;0.10;;;;;;;15.28;100.00;96025.91;4858705;29;20108;-80
2023/08/25 03:43:43;;;;;;;0.00;0.00;;;;;;;15.26;100.00;96019.19;4857659;29;20081;-80
2023/08/25 03:46:29;;;;;;;0.00;0.00;;;;;;;15.28;100.00;96031.28;4857823;29;20164;-79
2023/08/25 03:49:15;;;;;;;0.10;0.10;;;;;;;15.27;100.00;96018.09;4857242;29;20136;-79
2023/08/25 03:52:01;;;;;;;0.10;0.10;;;;;;;15.16;100.00;95998.53;4857253;29;20085;-79
2023/08/25 03:54:47;;;;;;;0.10;0.10;;;;;;;15.08;100.00;96019.94;4856741;28;20041;-79
2023/08/25 03:57:33;;;;;;;0.25;0.20;;;;;;;15.03;100.00;96007.34;4839776;29;20743;-79
2023/08/25 04:00:19;;;;;;;0.22;0.20;;;;;;;14.99;100.00;96011.69;4836572;29;20046;-80
2023/08/25 04:03:06;;;;;;;0.10;0.10;;;;;;;14.92;100.00;96022.00;4840859;29;20559;-80
2023/08/25 04:05:52;;;;;;;0.32;0.22;;;;;;;14.85;100.00;96021.53;4839741;29;20049;-80
2023/08/25 04:08:38;;;;;;;0.50;0.30;;;;;;;14.81;100.00;96009.75;4841953;29;20448;-80
2023/08/25 04:11:23;;;;;;;1.10;0.60;;;;;;;14.83;100.00;96007.56;4838873;29;20093;-80
2023/08/25 04:14:09;;;;;;;0.98;0.50;;;;;;;14.87;100.00;96014.00;4839932;29;20041;-80
2023/08/25 04:16:56;;;;;;;1.05;0.60;;;;;;;14.90;100.00;96011.50;4839829;29;20079;-80
2023/08/25 04:19:42;;;;;;;0.70;0.43;;;;;;;15.08;100.00;96001.06;4842072;29;20045;-80
2023/08/25 04:22:28;;;;;;;0.30;0.30;;;;;;;15.19;100.00;96006.06;4841931;29;20049;-80
2023/08/25 04:25:14;;;;;;;0.35;0.20;;;;;;;15.16;100.00;96000.44;4841269;29;20045;-80
2023/08/25 04:27:59;;;;;;;0.10;0.10;;;;;;;15.16;100.00;95995.03;4842396;29;20061;-80
2023/08/25 04:30:46;;;;;;;0.10;0.10;;;;;;;15.24;100.00;95995.19;4829095;29;20892;-80
2023/08/25 04:33:41;;;;;;;0.00;0.00;;;;;;;15.28;100.00;95993.53;4843986;29;20083;-81
2023/08/25 04:36:27;;;;;;;0.10;0.10;;;;;;;15.17;100.00;95983.97;4842721;29;20056;-80
2023/08/25 04:39:13;;;;;;;0.10;0.10;;;;;;;15.15;100.00;95975.38;4844998;29;20348;-80
2023/08/25 04:42:00;;;;;;;0.10;0.10;;;;;;;15.13;100.00;95953.31;4843052;29;20053;-80
2023/08/25 04:44:47;;;;;;;0.15;0.15;;;;;;;15.16;100.00;95946.53;4843619;29;20045;-80
2023/08/25 04:47:33;;;;;;;0.08;0.08;;;;;;;15.17;100.00;95954.31;4842342;29;20129;-80
2023/08/25 04:50:20;;;;;;;0.10;0.10;;;;;;;15.32;100.00;95948.72;4844067;29;20117;-80
2023/08/25 04:53:07;;;;;;;0.10;0.10;;;;;;;15.39;100.00;95951.06;4840760;29;20511;-80
2023/08/25 04:55:53;;;;;;;0.10;0.10;;;;;;;15.19;100.00;95956.75;4843373;29;20057;-81
2023/08/25 04:58:39;;;;;;;0.10;0.10;;;;;;;15.19;100.00;95965.66;4843464;29;20050;-80
2023/08/25 05:01:25;;;;;;;0.15;0.15;;;;;;;15.26;100.00;95968.00;4842566;29;20717;-80
2023/08/25 05:04:11;;;;;;;0.20;0.20;;;;;;;15.28;100.00;95969.28;4842548;29;20053;-80
2023/08/25 05:06:58;;;;;;;0.10;0.10;;;;;;;15.34;100.00;95961.94;4844891;29;20790;-80
2023/08/25 05:09:45;;;;;;;0.10;0.10;;;;;;;15.49;100.00;95983.31;4840835;29;20084;-80
2023/08/25 05:12:31;;;;;;;0.10;0.10;;;;;;;15.65;100.00;95978.53;4843373;28;20132;-81
2023/08/25 05:15:18;;;;;;;0.10;0.10;;;;;;;15.83;100.00;95972.31;4842615;29;20057;-80
2023/08/25 05:18:05;;;;;;;0.10;0.10;;;;;;;15.94;100.00;95950.56;4842598;29;20803;-80
2023/08/25 05:21:00;;;;;;;0.10;0.10;;;;;;;16.24;100.00;95966.25;4830459;29;20049;-81
2023/08/25 05:23:46;;;;;;;0.10;0.10;;;;;;;16.55;100.00;95973.81;4843271;29;20045;-81
2023/08/25 05:26:32;;;;;;;0.10;0.10;;;;;;;16.75;100.00;95980.78;4842105;29;20049;-81
2023/08/25 05:29:22;;;;;;;0.10;0.10;;;;;;;16.91;100.00;95991.00;4843361;29;20098;-82
2023/08/25 05:32:08;;;;;;;0.10;0.10;;;;;;;16.73;100.00;96018.91;4842636;29;20108;-80
2023/08/25 05:35:00;;;;;;;0.00;0.00;;;;;;;16.55;100.00;96023.22;4828605;29;20073;-81
2023/08/25 05:37:49;;;;;;;0.00;0.00;;;;;;;16.44;100.00;96038.00;4844106;29;20160;-81
2023/08/25 05:40:35;;;;;;;0.00;0.00;;;;;;;16.36;100.00;96036.78;4828905;29;20045;-81
2023/08/25 05:43:21;;;;;;;0.10;0.10;;;;;;;16.21;100.00;96020.84;4843785;29;20046;-81
2023/08/25 05:46:06;;;;;;;0.10;0.10;;;;;;;16.31;100.00;95993.66;4842632;29;20132;-80
2023/08/25 05:48:52;;;;;;;0.00;0.00;;;;;;;16.44;100.00;95994.81;4841894;29;20041;-80
2023/08/25 05:51:38;;;;;;;0.10;0.10;;;;;;;16.63;100.00;95992.03;4844200;29;20045;-80
2023/08/25 05:54:24;;;;;;;0.10;0.10;;;;;;;16.83;100.00;96007.09;4841232;29;20244;-80
2023/08/25 05:57:11;;;;;;;0.10;0.10;;;;;;;16.90;100.00;96016.44;4840478;29;20045;-80
2023/08/25 05:59:58;;;;;;;0.10;0.10;;;;;;;16.96;100.00;96022.50;4843961;29;20045;-80
2023/08/25 06:02:44;;;;;;;0.10;0.10;;;;;;;16.95;100.00;96035.22;4841548;29;20534;-80
2023/08/25 06:05:30;;;;;;;0.10;0.10;;;;;;;16.95;100.00;96035.22;4826485;29;20133;-80
2023/08/25 06:08:15;;;;;;;0.10;0.10;;;;;;;16.94;100.00;96035.53;4841255;29;20772;-80
2023/08/25 06:11:01;;;;;;;0.10;0.10;;;;;;;16.89;100.00;96020.22;4842272;29;20640;-80
2023/08/25 06:13:47;;;;;;;0.20;0.20;;;;;;;16.87;100.00;95997.28;4841838;29;20152;-80
2023/08/25 06:16:33;;;;;;;0.10;0.10;;;;;;;16.86;100.00;96001.09;4842353;29;20403;-80
2023/08/25 06:19:19;;;;;;;0.10;0.10;;;;;;;16.72;100.00;96011.88;4842136;29;20052;-80
2023/08/25 06:22:04;;;;;;;0.10;0.10;;;;;;;16.65;100.00;96014.97;4842206;29;20956;-80
2023/08/25 06:24:53;;;;;;;0.05;0.05;;;;;;;16.55;100.00;96020.53;4841770;29;20055;-80
2023/08/25 06:27:39;;;;;;;0.10;0.10;;;;;;;16.44;100.00;96019.91;4842297;29;20053;-81
2023/08/25 06:30:26;;;;;;;0.10;0.10;;;;;;;16.34;100.00;96020.09;4842923;29;20050;-80
2023/08/25 06:33:12;;;;;;;0.10;0.10;;;;;;;16.40;100.00;96024.28;4841376;29;20105;-80
2023/08/25 06:35:58;;;;;;;0.10;0.10;;;;;;;16.48;100.00;96011.22;4841114;29;20061;-81
2023/08/25 06:38:44;;;;;;;0.10;0.10;;;;;;;16.54;100.00;96002.72;4843397;29;20088;-80
2023/08/25 06:41:30;;;;;;;0.10;0.10;;;;;;;16.64;100.00;96015.25;4840375;29;20075;-80
2023/08/25 06:44:17;;;;;;;0.10;0.10;;;;;;;16.71;100.00;96023.78;4840675;29;20141;-80
2023/08/25 06:47:03;;;;;;;0.10;0.10;;;;;;;16.75;100.00;96011.31;4842517;29;20587;-80
2023/08/25 06:49:49;;;;;;;0.10;0.10;;;;;;;16.80;100.00;96005.00;4842435;29;20128;-80
2023/08/25 06:52:36;;;;;;;0.10;0.10;;;;;;;16.85;100.00;96015.72;4842201;29;20590;-81
2023/08/25 06:55:22;;;;;;;0.10;0.10;;;;;;;16.76;100.00;96021.00;4840552;29;20625;-80
2023/08/25 06:58:08;;;;;;;0.10;0.10;;;;;;;16.71;100.00;96027.28;4841767;29;20049;-80
2023/08/25 07:00:54;;;;;;;0.10;0.10;;;;;;;16.82;100.00;96019.81;4841905;29;20521;-81
2023/08/25 07:03:40;;;;;;;0.10;0.10;;;;;;;16.78;100.00;96013.41;4841102;29;20065;-81
2023/08/25 07:06:26;;;;;;;0.10;0.10;;;;;;;16.80;100.00;96008.50;4841633;29;20800;-80
2023/08/25 07:09:13;;;;;;;0.10;0.10;;;;;;;16.86;100.00;96018.09;4840489;29;20057;-80
2023/08/25 07:11:59;;;;;;;0.10;0.10;;;;;;;16.89;100.00;95997.81;4842318;29;20046;-79
2023/08/25 07:14:44;;;;;;;0.10;0.10;;;;;;;16.87;100.00;96003.50;4842963;29;20050;-80
2023/08/25 07:17:33;;;;;;;0.10;0.10;;;;;;;17.01;100.00;96008.91;4841104;29;20041;-81
2023/08/25 07:20:19;;;;;;;0.10;0.10;;;;;;;17.16;100.00;96002.41;4840856;29;20312;-81
2023/08/25 07:23:05;;;;;;;0.10;0.10;;;;;;;17.25;100.00;95998.69;4843209;29;20357;-81
2023/08/25 07:25:52;;;;;;;0.10;0.10;;;;;;;17.44;100.00;96003.19;4841112;29;20041;-81
2023/08/25 07:28:38;;;;;;;0.10;0.10;;;;;;;17.29;100.00;96004.31;4842373;29;20712;-80
2023/08/25 07:31:23;;;;;;;0.10;0.10;;;;;;;17.20;100.00;96028.56;4841586;29;20720;-79
2023/08/25 07:34:09;;;;;;;0.10;0.10;;;;;;;17.26;100.00;96031.94;4841757;29;20045;-80
2023/08/25 07:36:55;;;;;;;0.00;0.00;;;;;;;17.24;100.00;96029.53;4841028;29;20037;-80
2023/08/25 07:39:42;;;;;;;0.10;0.10;;;;;;;17.32;100.00;96028.03;4841177;29;20134;-80
2023/08/25 07:42:28;;;;;;;0.10;0.10;;;;;;;17.43;100.00;96010.50;4840915;29;20125;-80
2023/08/25 07:45:13;;;;;;;0.10;0.10;;;;;;;17.48;100.00;95998.78;4841467;29;20171;-80
2023/08/25 07:48:01;;;;;;;0.10;0.10;;;;;;;17.66;100.00;96005.13;4841361;29;20041;-80
2023/08/25 07:50:47;;;;;;;0.10;0.10;;;;;;;17.99;100.00;95994.97;4841411;29;20046;-81
2023/08/25 07:53:32;;;;;;;0.10;0.10;;;;;;;18.13;100.00;95992.19;4841987;29;20053;-81
2023/08/25 07:56:18;;;;;;;0.10;0.10;;;;;;;18.54;100.00;95979.25;4841555;29;20455;-83
2023/08/25 07:59:05;;;;;;;0.10;0.10;;;;;;;18.94;100.00;95968.44;4842139;29;20128;-82
2023/08/25 08:01:51;;;;;;;0.10;0.10;;;;;;;19.64;100.00;95981.09;4841326;29;20049;-83
2023/08/25 08:04:38;;;;;;;0.00;0.00;;;;;;;19.42;100.00;95978.47;4844807;29;20084;-82
2023/08/25 08:07:23;;;;;;;0.00;0.00;;;;;;;19.12;100.00;95967.38;4843929;29;20057;-81
2023/08/25 08:10:10;;;;;;;0.10;0.10;;;;;;;19.21;100.00;95976.34;4842145;29;20044;-81
2023/08/25 08:12:56;;;;;;;0.10;0.10;;;;;;;19.27;100.00;95976.19;4844583;29;20045;-82
2023/08/25 08:15:42;;;;;;;0.10;0.10;;;;;;;19.46;100.00;95976.75;4841410;29;20041;-82
2023/08/25 08:18:28;;;;;;;0.10;0.10;;;;;;;19.56;100.00;95968.28;4845216;29;20656;-83
2023/08/25 08:21:14;;;;;;;0.10;0.10;;;;;;;19.88;100.00;95963.53;4845271;29;20049;-83
2023/08/25 08:24:00;;;;;;;0.10;0.10;;;;;;;20.01;100.00;95962.59;4845722;29;20056;-81
2023/08/25 08:26:46;;;;;;;0.10;0.10;;;;;;;19.93;100.00;95969.63;4844365;29;20084;-82
2023/08/25 08:29:32;;;;;;;0.10;0.10;;;;;;;19.79;100.00;95976.31;4843885;29;20719;-83
2023/08/25 08:32:18;;;;;;;0.10;0.10;;;;;;;19.73;100.00;95983.81;4843633;29;20057;-81
2023/08/25 08:35:07;;;;;;;0.10;0.10;;;;;;;19.78;100.00;95991.81;4846027;29;20050;-83
2023/08/25 08:37:53;;;;;;;0.10;0.10;;;;;;;19.54;100.00;95997.66;4842653;29;20045;-82
2023/08/25 08:40:40;;;;;;;0.08;0.08;;;;;;;19.59;100.00;96004.88;4844339;29;20359;-83
2023/08/25 08:43:27;;;;;;;0.10;0.10;;;;;;;19.70;100.00;96012.41;4846933;29;20053;-82
2023/08/25 08:46:17;;;;;;;0.10;0.10;;;;;;;19.48;100.00;96015.19;4847372;29;20144;-81
2023/08/25 08:49:03;;;;;;;0.10;0.10;;;;;;;19.15;100.00;96010.16;4844471;29;20539;-83
2023/08/25 08:51:50;;;;;;;0.10;0.10;;;;;;;19.15;100.00;95993.09;4847526;29;20038;-82
2023/08/25 08:54:41;;;;;;;0.08;0.08;;;;;;;19.26;100.00;96010.66;4843696;29;20054;-84
2023/08/25 08:57:29;;;;;;;0.00;0.00;;;;;;;19.08;100.00;96000.88;4844166;29;20618;-82
2023/08/25 09:00:18;;;;;;;0.00;0.00;;;;;;;19.24;100.00;96003.97;4843104;29;20105;-83
2023/08/25 09:03:11;;;;;;;0.10;0.10;;;;;;;19.65;100.00;95998.97;4843694;29;20045;-82
2023/08/25 09:05:59;;;;;;;0.10;0.10;;;;;;;20.07;100.00;95985.72;4842922;29;20419;-82
2023/08/25 09:08:47;;;;;;;0.10;0.10;;;;;;;20.45;100.00;95999.47;4829969;29;20045;-84
2023/08/25 09:11:33;;;;;;;0.10;0.10;;;;;;;20.23;100.00;96005.06;4842865;29;20049;-81
2023/08/25 09:14:24;;;;;;;0.08;0.08;;;;;;;20.19;100.00;96007.63;4843432;29;20046;-82
2023/08/25 09:17:12;;;;;;;;;;;;;;;20.42;100.00;96002.00;4843521;29;20046;-84
2023/08/25 09:20:05;;;;;;;0.10;0.10;;;;;;;20.51;100.00;95994.66;4844938;29;19983;-82
2023/08/25 09:22:58;;;;;;;0.10;0.10;;;;;;;20.52;100.00;95999.78;4844228;29;20033;-82
2023/08/25 09:25:44;;;;;;;0.10;0.10;;;;;;;19.99;100.00;96009.06;4843506;29;20060;-82
2023/08/25 09:28:36;;;;;;;0.10;0.10;;;;;;;19.65;100.00;96019.88;4843304;29;20842;-84
2023/08/25 09:31:29;;;;;;;0.00;0.00;;;;;;;19.57;100.00;96007.91;4843281;29;20592;-82
2023/08/25 09:34:15;;;;;;;0.10;0.10;;;;;;;19.65;100.00;96019.88;4843715;29;20049;-83
2023/08/25 09:37:01;;;;;;;0.10;0.10;;;;;;;19.93;100.00;96023.13;4843842;29;20045;-82
2023/08/25 09:39:47;;;;;;;0.10;0.10;;;;;;;19.79;100.00;96031.41;4842348;29;20112;-83
2023/08/25 09:42:33;;;;;;;0.00;0.00;;;;;;;19.80;100.00;96024.88;4843211;29;20045;-83
2023/08/25 09:45:18;;;;;;;0.10;0.10;;;;;;;20.18;100.00;96021.53;4830731;29;20492;-83
2023/08/25 09:48:11;;;;;;;0.10;0.10;;;;;;;20.72;100.00;96017.31;4843175;29;20483;-82
2023/08/25 09:50:57;;;;;;;0.10;0.10;;;;;;;21.46;100.00;96001.69;4842999;29;20049;-83
2023/08/25 09:53:46;;;;;;;0.10;0.10;;;;;;;22.38;100.00;95997.03;4842419;29;20113;-82
2023/08/25 09:56:33;;;;;;;0.10;0.10;;;;;;;23.10;100.00;96003.00;4842894;29;20049;-82
2023/08/25 09:59:19;;;;;;;0.10;0.10;;;;;;;22.92;100.00;96005.16;4825395;29;20068;-82
2023/08/25 10:02:08;;;;;;;0.10;0.10;;;;;;;22.85;100.00;96002.19;4845790;29;20053;-81
2023/08/25 10:04:56;;;;;;;0.10;0.10;;;;;;;22.29;100.00;95996.31;4829254;29;20109;-80
2023/08/25 10:07:42;;;;;;;0.10;0.10;;;;;;;22.62;100.00;95979.16;4844114;29;20114;-82
2023/08/25 10:10:35;;;;;;;0.13;0.13;;;;;;;23.57;100.00;95970.59;4840280;29;20940;-81
2023/08/25 10:13:23;;;;;;;0.20;0.20;;;;;;;24.14;100.00;95966.84;4841079;29;20558;-82
2023/08/25 10:16:11;;;;;;;0.00;0.00;;;;;;;24.12;100.00;95962.84;4843616;29;20053;-84
2023/08/25 10:19:01;;;;;;;0.10;0.10;;;;;;;23.97;100.00;95960.84;4841723;29;20065;-83
2023/08/25 10:21:50;;;;;;;0.00;0.00;;;;;;;25.09;100.00;95960.78;4841358;29;20117;-84
2023/08/25 10:24:38;;;;;;;0.10;0.10;;;;;;;24.63;100.00;95961.16;4829625;29;20104;-82
2023/08/25 10:27:24;;;;;;;0.10;0.10;;;;;;;23.92;100.00;95955.66;4826988;29;20065;-81
2023/08/25 10:30:11;;;;;;;0.10;0.10;;;;;;;24.13;100.00;95942.59;4841645;29;20813;-81
2023/08/25 10:33:11;;;;;;;0.00;0.00;;;;;;;24.42;100.00;95944.19;4842448;29;20081;-82
2023/08/25 10:36:04;;;;;;;0.10;0.10;;;;;;;24.60;100.00;95945.47;4843652;29;20044;-82
2023/08/25 10:38:59;;;;;;;0.10;0.10;;;;;;;24.76;100.00;95939.22;4833339;29;20089;-82
2023/08/25 10:41:45;;;;;;;0.10;0.10;;;;;;;25.50;100.00;95926.56;4797418;29;20976;-82
2023/08/25 10:44:39;;;;;;;0.08;0.08;;;;;;;25.60;100.00;95926.00;4837430;29;20049;-84
2023/08/25 10:47:27;;;;;;;0.10;0.10;;;;;;;25.84;100.00;95916.78;4839851;29;20061;-82
2023/08/25 10:50:19;;;;;;;0.10;0.10;;;;;;;26.84;100.00;95911.22;4837479;29;20523;-81
2023/08/25 10:53:54;;;;;;;0.10;0.10;;;;;;;27.27;100.00;95900.97;4827843;29;20073;-82
2023/08/25 10:56:40;;;;;;;0.10;0.10;;;;;;;26.29;100.00;95902.38;4833047;29;20221;-82
2023/08/25 10:59:26;;;;;;;0.00;0.00;;;;;;;24.95;100.00;95918.22;4841499;29;20045;-82
2023/08/25 11:02:38;;;;;;;0.00;0.00;;;;;;;24.92;100.00;95924.41;4838717;29;20496;-83
2023/08/25 11:05:33;;;;;;;0.00;0.00;;;;;;;24.92;100.00;95931.81;4838737;29;20060;-81
2023/08/25 11:08:24;;;;;;;0.00;0.00;;;;;;;24.91;100.00;95939.25;4839499;29;20053;-83
2023/08/25 11:11:12;;;;;;;0.00;0.00;;;;;;;24.14;100.00;95930.53;4840010;29;20046;-82
2023/08/25 11:13:59;;;;;;;0.00;0.00;;;;;;;24.28;100.00;95927.38;4839934;29;20053;-83
2023/08/25 11:16:47;;;;;;;0.10;0.10;;;;;;;24.20;100.00;95926.38;4841019;29;20084;-80
2023/08/25 11:19:36;;;;;;;0.00;0.00;;;;;;;24.35;100.00;95931.13;4838567;29;20113;-83
2023/08/25 11:22:22;;;;;;;0.10;0.10;;;;;;;24.21;100.00;95932.66;4839783;29;20937;-82
2023/08/25 11:25:17;;;;;;;0.00;0.00;;;;;;;25.10;100.00;95933.06;4839030;29;20886;-84
2023/08/25 11:28:03;;;;;;;0.15;0.15;;;;;;;25.90;100.00;95925.47;4840094;29;20069;-82
2023/08/25 11:30:49;;;;;;;0.10;0.10;;;;;;;26.00;100.00;95933.94;4839221;29;20045;-84
2023/08/25 11:33:35;;;;;;;0.00;0.00;;;;;;;25.54;100.00;95933.72;4838326;29;20048;-84
2023/08/25 11:36:24;;;;;;;0.00;0.00;;;;;;;25.48;100.00;95932.41;4837457;29;20052;-83
2023/08/25 11:39:18;;;;;;;0.10;0.10;;;;;;;25.85;100.00;95923.03;4845508;29;20056;-83
2023/08/25 11:42:04;;;;;;;0.10;0.10;;;;;;;25.42;100.00;95917.38;4848209;29;20555;-82
2023/08/25 11:44:52;;;;;;;0.10;0.10;;;;;;;26.22;100.00;95909.66;4855539;29;20053;-80
2023/08/25 11:47:39;;;;;;;0.08;0.08;;;;;;;25.98;100.00;95903.34;4858083;29;20112;-83
2023/08/25 11:50:25;;;;;;;0.00;0.00;;;;;;;25.68;100.00;95903.09;4857602;29;20937;-81
2023/08/25 11:53:11;;;;;;;0.10;0.10;;;;;;;25.14;100.00;95903.84;4867600;29;20053;-81
2023/08/25 11:56:06;;;;;;;0.05;0.05;;;;;;;24.54;100.00;95900.38;4861870;29;20127;-82
2023/08/25 11:58:52;;;;;;;0.00;0.00;;;;;;;24.36;100.00;95899.94;4864152;29;20607;-82
2023/08/25 12:01:38;;;;;;;0.00;0.00;;;;;;;24.33;100.00;95886.94;4862345;29;20746;-84
2023/08/25 12:04:26;;;;;;;0.00;0.00;;;;;;;24.05;100.00;95876.03;4864734;29;20857;-82
2023/08/25 12:07:11;;;;;;;0.10;0.10;;;;;;;23.80;100.00;95858.13;4861924;29;20077;-82
2023/08/25 12:09:59;;;;;;;0.00;0.00;;;;;;;23.66;100.00;95863.19;4862762;29;20424;-83
2023/08/25 12:12:45;;;;;;;0.10;0.10;;;;;;;23.14;100.00;95869.44;4861401;29;20045;-85
2023/08/25 12:15:42;;;;;;;0.00;0.00;;;;;;;22.74;100.00;95898.16;4861562;29;20051;-83
2023/08/25 12:18:39;;;;;;;0.00;0.00;;;;;;;22.18;100.00;95924.28;4863621;29;20633;-81
2023/08/25 12:21:35;;;;;;;0.10;0.10;;;;;;;22.04;100.00;95948.28;4863231;29;20060;-82
2023/08/25 12:24:22;;;;;;;0.00;0.00;;;;;;;21.28;100.00;95960.97;4864448;29;20093;-82
2023/08/25 12:27:08;;;;;;;0.00;0.00;;;;;;;20.82;100.00;95968.03;4861127;29;20156;-82
2023/08/25 12:29:54;;;;;;;0.00;0.00;;;;;;;20.91;100.00;95973.44;4861357;29;20064;-81
2023/08/25 12:32:40;;;;;;;0.08;0.08;;;;;;;20.79;100.00;95965.97;4863028;29;20054;-81
2023/08/25 12:35:26;;;;;;;0.10;0.10;;;;;;;20.91;100.00;95959.84;4863687;29;20052;-82
2023/08/25 12:38:12;;;;;;;0.10;0.10;;;;;;;21.08;100.00;95961.69;4861197;29;20073;-82
2023/08/25 12:40:58;;;;;;;0.00;0.00;;;;;;;20.90;100.00;95949.28;4849990;29;20477;-81
2023/08/25 12:43:44;;;;;;;0.10;0.10;;;;;;;20.95;100.00;95957.28;4862491;29;20053;-82
2023/08/25 12:46:31;;;;;;;0.00;0.00;;;;;;;20.82;100.00;95954.44;4859914;29;20107;-82
2023/08/25 12:49:16;;;;;;;0.10;0.10;;;;;;;20.82;100.00;95949.00;4862302;29;20075;-82
2023/08/25 12:52:03;;;;;;;0.00;0.00;;;;;;;20.82;100.00;95964.50;4862384;29;20048;-82
2023/08/25 12:54:49;;;;;;;0.10;0.10;;;;;;;20.98;100.00;95956.63;4862730;29;20055;-83
2023/08/25 12:57:35;;;;;;;0.08;0.08;;;;;;;20.90;100.00;95955.53;4844404;29;20451;-84
2023/08/25 13:00:20;;;;;;;0.00;0.00;;;;;;;20.82;100.00;95954.44;4840642;29;20865;-82